createdAt,value
2023-02-22T00:01:08.473Z,97455.45
2023-02-22T00:03:36.694Z,97458.48
2023-02-22T00:06:06.069Z,97455.04
2023-02-22T00:08:35.769Z,97456.48
2023-02-22T00:11:05.367Z,97457.71
2023-02-22T00:13:33.457Z,97461.04
2023-02-22T00:16:01.893Z,97464.13
2023-02-22T00:18:30.200Z,97464.77
2023-02-22T00:21:00.225Z,97467.67
2023-02-22T00:23:29.841Z,97466.96
2023-02-22T00:25:58.825Z,97465.66
2023-02-22T00:28:27.202Z,97468.82
2023-02-22T00:30:55.622Z,97469.55
2023-02-22T00:33:23.661Z,97466.79
2023-02-22T00:35:52.244Z,97467.04
2023-02-22T00:38:20.209Z,97466.44
2023-02-22T00:40:48.169Z,97467.63
2023-02-22T00:43:16.660Z,97466.41
2023-02-22T00:45:44.654Z,97470.45
2023-02-22T00:48:13.415Z,97469.94
2023-02-22T00:50:41.382Z,97469.95
2023-02-22T00:53:10.881Z,97467.02
2023-02-22T00:55:38.954Z,97464.66
2023-02-22T00:58:07.030Z,97464.09
2023-02-22T01:00:41.787Z,97462.77
2023-02-22T01:03:10.855Z,97460.67
2023-02-22T01:05:39.296Z,97459.67
2023-02-22T01:08:08.439Z,97458.52
2023-02-22T01:10:37.226Z,97461.95
2023-02-22T01:13:09.291Z,97461.80
2023-02-22T01:15:38.808Z,97456.70
2023-02-22T01:18:06.856Z,97454.18
2023-02-22T01:20:35.441Z,97456.54
2023-02-22T01:23:06.838Z,97461.21
2023-02-22T01:25:36.005Z,97461.31
2023-02-22T01:28:05.200Z,97459.63
2023-02-22T01:30:34.500Z,97457.21
2023-02-22T01:33:04.031Z,97459.49
2023-02-22T01:35:33.907Z,97462.60
2023-02-22T01:38:02.289Z,97459.85
2023-02-22T01:40:32.205Z,97460.13
2023-02-22T01:43:01.762Z,97457.95
2023-02-22T01:45:30.390Z,97459.65
2023-02-22T01:48:06.268Z,97462.13
2023-02-22T01:50:37.540Z,97465.05
2023-02-22T01:53:08.230Z,97463.73
2023-02-22T01:55:36.315Z,97463.16
2023-02-22T01:58:05.193Z,97467.73
2023-02-22T02:00:33.359Z,97469.53
2023-02-22T02:03:03.138Z,97469.36
2023-02-22T02:05:31.857Z,97469.56
2023-02-22T02:08:03.678Z,97465.83
2023-02-22T02:10:32.105Z,97467.66
2023-02-22T02:13:00.099Z,97473.94
2023-02-22T02:15:31.217Z,97471.25
2023-02-22T02:18:01.132Z,97474.73
2023-02-22T02:20:35.357Z,97477.02
2023-02-22T02:23:06.432Z,97477.76
2023-02-22T02:26:07.119Z,97478.34
2023-02-22T02:28:37.856Z,97477.85
2023-02-22T02:31:05.728Z,97478.15
2023-02-22T02:33:35.028Z,97478.63
2023-02-22T02:36:12.010Z,97483.89
2023-02-22T02:38:44.628Z,97480.97
2023-02-22T02:41:15.834Z,97479.98
2023-02-22T02:44:02.135Z,97479.85
2023-02-22T02:46:39.222Z,97481.77
2023-02-22T02:49:11.384Z,97485.80
2023-02-22T02:51:41.711Z,97486.88
2023-02-22T02:54:11.310Z,97486.84
2023-02-22T02:56:39.286Z,97488.52
2023-02-22T02:59:26.506Z,97490.74
2023-02-22T03:02:03.688Z,97489.90
2023-02-22T03:04:49.027Z,97492.16
2023-02-22T03:07:32.449Z,97496.36
2023-02-22T03:10:09.518Z,97497.75
2023-02-22T03:12:49.949Z,97502.14
2023-02-22T03:15:36.545Z,97502.09
2023-02-22T03:18:07.490Z,97504.93
2023-02-22T03:20:38.322Z,97503.80
2023-02-22T03:23:12.231Z,97506.73
2023-02-22T03:25:43.491Z,97505.34
2023-02-22T03:28:14.936Z,97502.72
2023-02-22T03:30:46.954Z,97503.77
2023-02-22T03:33:20.563Z,97511.86
2023-02-22T03:35:51.231Z,97514.78
2023-02-22T03:38:20.569Z,97513.14
2023-02-22T03:40:51.372Z,97516.83
2023-02-22T03:43:23.233Z,97522.80
2023-02-22T03:45:53.361Z,97518.91
2023-02-22T03:48:30.346Z,97519.09
2023-02-22T03:51:03.018Z,97524.61
2023-02-22T03:53:31.702Z,97523.13
2023-02-22T03:56:00.870Z,97521.80
2023-02-22T03:58:31.737Z,97520.82
2023-02-22T04:01:00.119Z,97528.04
2023-02-22T04:03:28.082Z,97527.52
2023-02-22T04:05:56.465Z,97527.38
2023-02-22T04:08:24.871Z,97531.67
2023-02-22T04:10:53.827Z,97531.17
2023-02-22T04:13:24.982Z,97530.99
2023-02-22T04:15:54.744Z,97528.80
2023-02-22T04:18:22.758Z,97527.98
2023-02-22T04:20:51.953Z,97531.11
2023-02-22T04:23:42.203Z,97530.80
2023-02-22T04:26:10.226Z,97533.57
2023-02-22T04:28:38.197Z,97536.20
2023-02-22T04:31:11.076Z,97535.02
2023-02-22T04:33:39.145Z,97534.31
2023-02-22T04:36:07.829Z,97538.27
2023-02-22T04:38:36.513Z,97536.86
2023-02-22T04:41:04.483Z,97536.48
2023-02-22T04:43:32.530Z,97535.11
2023-02-22T04:46:13.984Z,97535.67
2023-02-22T04:48:42.020Z,97534.52
2023-02-22T04:51:09.932Z,97535.58
2023-02-22T04:53:39.292Z,97536.29
2023-02-22T04:56:07.567Z,97538.40
2023-02-22T04:58:35.804Z,97542.58
2023-02-22T05:01:04.218Z,97546.20
2023-02-22T05:03:32.191Z,97548.64
2023-02-22T05:06:00.154Z,97553.79
2023-02-22T05:08:28.175Z,97554.15
2023-02-22T05:10:56.254Z,97556.63
2023-02-22T05:13:24.272Z,97559.33
2023-02-22T05:15:52.217Z,97560.55
2023-02-22T05:18:20.152Z,97558.91
2023-02-22T05:20:48.178Z,97555.41
2023-02-22T05:23:16.256Z,97552.77
2023-02-22T05:25:44.682Z,97554.16
2023-02-22T05:28:14.233Z,97561.95
2023-02-22T05:30:42.685Z,97566.83
2023-02-22T05:33:10.913Z,97575.23
2023-02-22T05:35:38.859Z,97580.77
2023-02-22T05:38:06.929Z,97581.55
2023-02-22T05:40:35.209Z,97582.33
2023-02-22T05:43:03.175Z,97584.77
2023-02-22T05:45:31.151Z,97587.92
2023-02-22T05:47:59.011Z,97589.81
2023-02-22T05:50:27.093Z,97593.13
2023-02-22T05:52:55.668Z,97599.41
2023-02-22T05:55:24.391Z,97605.64
2023-02-22T05:57:52.595Z,97610.60
2023-02-22T06:00:28.365Z,97610.77
2023-02-22T06:02:57.184Z,97613.73
2023-02-22T06:05:26.283Z,97617.20
2023-02-22T06:07:54.368Z,97618.61
2023-02-22T06:10:22.408Z,97623.65
2023-02-22T06:12:51.378Z,97624.52
2023-02-22T06:15:20.297Z,97626.73
2023-02-22T06:17:48.977Z,97628.28
2023-02-22T06:20:18.282Z,97633.74
2023-02-22T06:22:49.734Z,97637.29
2023-02-22T06:25:19.032Z,97638.16
2023-02-22T06:27:46.882Z,97645.06
2023-02-22T06:30:15.798Z,97651.33
2023-02-22T06:32:43.661Z,97653.39
2023-02-22T06:35:12.034Z,97657.44
2023-02-22T06:37:40.125Z,97657.06
2023-02-22T06:40:08.380Z,97662.75
2023-02-22T06:42:36.373Z,97661.69
2023-02-22T06:45:04.629Z,97660.74
2023-02-22T06:47:32.604Z,97662.30
2023-02-22T06:50:01.184Z,97663.10
2023-02-22T06:52:29.162Z,97661.30
2023-02-22T06:54:57.127Z,97664.32
2023-02-22T06:57:25.311Z,97664.20
2023-02-22T06:59:53.260Z,97667.48
2023-02-22T07:02:21.129Z,97670.56
2023-02-22T07:04:49.142Z,97672.50
2023-02-22T07:07:17.176Z,97676.66
2023-02-22T07:09:47.598Z,97675.88
2023-02-22T07:12:15.778Z,97674.90
2023-02-22T07:14:43.623Z,97673.56
2023-02-22T07:17:11.731Z,97676.10
2023-02-22T07:19:39.796Z,97676.13
2023-02-22T07:22:07.757Z,97678.21
2023-02-22T07:24:35.725Z,97678.11
2023-02-22T07:27:04.045Z,97679.36
2023-02-22T07:29:31.961Z,97680.95
2023-02-22T07:32:00.095Z,97683.50
2023-02-22T07:34:28.526Z,97687.66
2023-02-22T07:36:56.533Z,97690.29
2023-02-22T07:39:24.462Z,97693.45
2023-02-22T07:41:53.051Z,97693.23
2023-02-22T07:44:24.400Z,97691.95
2023-02-22T07:46:52.307Z,97693.16
2023-02-22T07:49:20.641Z,97691.45
2023-02-22T07:51:48.553Z,97694.23
2023-02-22T07:54:16.683Z,97695.70
2023-02-22T07:56:48.343Z,97691.77
2023-02-22T07:59:16.434Z,97693.56
2023-02-22T08:01:44.690Z,97690.81
2023-02-22T08:04:12.773Z,97694.13
2023-02-22T08:06:40.944Z,97697.38
2023-02-22T08:09:09.011Z,97698.19
2023-02-22T08:11:36.980Z,97696.86
2023-02-22T08:14:04.944Z,97701.92
2023-02-22T08:16:32.917Z,97707.19
2023-02-22T08:19:01.096Z,97708.30
2023-02-22T08:21:30.500Z,97707.02
2023-02-22T08:23:58.562Z,97705.80
2023-02-22T08:26:26.741Z,97704.70
2023-02-22T08:28:55.144Z,97708.40
2023-02-22T08:31:23.061Z,97710.98
2023-02-22T08:33:51.174Z,97708.84
2023-02-22T08:36:19.127Z,97712.27
2023-02-22T08:38:46.997Z,97711.38
2023-02-22T08:41:15.065Z,97712.06
2023-02-22T08:43:43.452Z,97713.13
2023-02-22T08:46:11.434Z,97718.75
2023-02-22T08:48:39.284Z,97718.11
2023-02-22T08:51:07.162Z,97716.13
2023-02-22T08:53:35.306Z,97713.17
2023-02-22T08:56:03.393Z,97714.96
2023-02-22T08:58:31.212Z,97710.68
2023-02-22T09:00:59.119Z,97712.41
2023-02-22T09:03:27.135Z,97719.30
2023-02-22T09:05:55.512Z,97718.52
2023-02-22T09:08:23.516Z,97717.79
2023-02-22T09:10:51.819Z,97722.94
2023-02-22T09:13:19.691Z,97723.33
2023-02-22T09:15:47.550Z,97725.20
2023-02-22T09:18:15.519Z,97725.06
2023-02-22T09:20:43.607Z,97726.56
2023-02-22T09:23:11.492Z,97726.98
2023-02-22T09:25:40.971Z,97726.27
2023-02-22T09:28:09.476Z,97727.84
2023-02-22T09:30:37.685Z,97727.98
2023-02-22T09:33:10.273Z,97727.56
2023-02-22T09:35:47.957Z,97728.36
2023-02-22T09:38:22.811Z,97731.16
2023-02-22T09:40:52.082Z,97729.88
2023-02-22T09:43:31.277Z,97728.66
2023-02-22T09:46:21.167Z,97728.87
2023-02-22T09:49:08.165Z,97727.16
2023-02-22T09:51:42.580Z,97726.23
2023-02-22T09:54:14.676Z,97728.44
2023-02-22T09:56:44.258Z,97726.32
2023-02-22T09:59:15.912Z,97723.98
2023-02-22T10:01:46.744Z,97722.58
2023-02-22T10:04:18.813Z,97724.82
2023-02-22T10:06:59.377Z,97724.64
2023-02-22T10:09:27.865Z,97722.48
2023-02-22T10:12:00.204Z,97717.86
2023-02-22T10:14:37.318Z,97720.91
2023-02-22T10:17:17.680Z,97720.08
2023-02-22T10:19:45.640Z,97719.96
2023-02-22T10:22:21.320Z,97720.25
2023-02-22T10:25:04.992Z,97718.86
2023-02-22T10:27:33.211Z,97713.02
2023-02-22T10:30:23.274Z,97708.73
2023-02-22T10:33:26.751Z,97705.92
2023-02-22T10:35:55.398Z,97701.77
2023-02-22T10:38:24.793Z,97696.98
2023-02-22T10:40:55.739Z,97694.98
2023-02-22T10:43:24.317Z,97699.45
2023-02-22T10:45:56.170Z,97704.85
2023-02-22T10:48:26.096Z,97703.33
2023-02-22T10:50:57.541Z,97697.45
2023-02-22T10:53:27.148Z,97700.57
2023-02-22T10:56:10.126Z,97697.91
2023-02-22T10:58:41.004Z,97693.25
2023-02-22T11:01:38.434Z,97693.66
2023-02-22T11:04:12.492Z,97690.11
2023-02-22T11:06:41.882Z,97683.80
2023-02-22T11:09:12.944Z,97683.50
2023-02-22T11:11:47.747Z,97687.12
2023-02-22T11:14:29.650Z,97686.63
2023-02-22T11:16:58.647Z,97680.82
2023-02-22T11:19:31.430Z,97681.41
2023-02-22T11:22:22.457Z,97681.38
2023-02-22T11:27:50.367Z,97677.48
2023-02-22T11:30:22.040Z,97673.83
2023-02-22T11:33:12.837Z,97674.25
2023-02-22T11:35:57.153Z,97674.59
2023-02-22T11:38:25.228Z,97670.42
2023-02-22T11:41:11.203Z,97666.98
2023-02-22T11:43:39.058Z,97667.63
2023-02-22T11:46:10.025Z,97667.00
2023-02-22T11:48:40.218Z,97664.30
2023-02-22T11:51:14.441Z,97662.95
2023-02-22T11:53:44.458Z,97665.11
2023-02-22T11:56:12.324Z,97663.86
2023-02-22T11:58:46.024Z,97665.73
2023-02-22T12:01:19.855Z,97657.02
2023-02-22T12:04:06.694Z,97653.81
2023-02-22T12:06:40.657Z,97650.58
2023-02-22T12:09:27.476Z,97650.28
2023-02-22T12:12:04.547Z,97644.19
2023-02-22T12:14:53.757Z,97639.61
2023-02-22T12:17:43.619Z,97638.05
2023-02-22T12:20:25.593Z,97634.05
2023-02-22T12:22:57.761Z,97631.50
2023-02-22T12:25:29.618Z,97630.50
2023-02-22T12:28:00.518Z,97626.18
2023-02-22T12:30:34.395Z,97628.99
2023-02-22T12:33:06.464Z,97623.31
2023-02-22T12:35:36.663Z,97620.70
2023-02-22T12:38:17.023Z,97620.41
2023-02-22T12:40:45.319Z,97620.72
2023-02-22T12:43:18.492Z,97618.07
2023-02-22T12:46:01.813Z,97609.93
2023-02-22T12:48:30.412Z,97607.60
2023-02-22T12:51:02.365Z,97613.04
2023-02-22T12:53:38.434Z,97614.93
2023-02-22T12:56:25.357Z,97614.17
2023-02-22T12:59:03.084Z,97615.86
2023-02-22T13:01:43.233Z,97615.53
2023-02-22T13:04:20.488Z,97616.17
2023-02-22T13:06:55.212Z,97620.30
2023-02-22T13:09:28.929Z,97616.09
2023-02-22T13:12:26.269Z,97612.58
2023-02-22T13:15:00.145Z,97607.77
2023-02-22T13:17:31.219Z,97607.04
2023-02-22T13:20:06.350Z,97608.14
2023-02-22T13:23:01.886Z,97608.22
2023-02-22T13:25:52.459Z,97607.11
2023-02-22T13:28:39.289Z,97606.30
2023-02-22T13:31:25.820Z,97607.54
2023-02-22T13:34:03.689Z,97613.70
2023-02-22T13:36:34.733Z,97610.34
2023-02-22T13:39:02.898Z,97604.03
2023-02-22T13:41:33.941Z,97595.29
2023-02-22T13:44:17.066Z,97600.60
2023-02-22T13:47:00.856Z,97599.23
2023-02-22T13:49:37.994Z,97602.77
2023-02-22T13:52:12.413Z,97604.52
2023-02-22T13:54:46.762Z,97598.74
2023-02-22T13:57:19.717Z,97597.67
2023-02-22T13:59:48.519Z,97597.60
2023-02-22T14:02:36.852Z,97598.55
2023-02-22T14:05:25.335Z,97595.61
2023-02-22T14:07:53.260Z,97594.91
2023-02-22T14:10:56.484Z,97593.78
2023-02-22T14:13:29.292Z,97596.79
2023-02-22T14:16:00.284Z,97596.67
2023-02-22T14:18:31.642Z,97595.98
2023-02-22T14:21:06.697Z,97597.56
2023-02-22T14:23:40.461Z,97597.60
2023-02-22T14:26:21.739Z,97595.06
2023-02-22T14:28:55.877Z,97591.95
2023-02-22T14:31:35.923Z,97594.97
2023-02-22T14:34:09.421Z,97594.86
2023-02-22T14:36:43.234Z,97596.52
2023-02-22T14:39:17.986Z,97599.41
2023-02-22T14:41:50.334Z,97601.66
2023-02-22T14:44:21.779Z,97604.60
2023-02-22T14:46:52.102Z,97605.05
2023-02-22T14:49:23.040Z,97606.45
2023-02-22T14:51:54.100Z,97609.77
2023-02-22T14:54:34.351Z,97604.01
2023-02-22T14:57:24.570Z,97605.73
2023-02-22T14:59:59.139Z,97601.48
2023-02-22T15:02:27.176Z,97605.14
2023-02-22T15:04:56.546Z,97606.47
2023-02-22T15:07:29.929Z,97610.36
2023-02-22T15:10:17.725Z,97614.17
2023-02-22T15:13:12.673Z,97610.05
2023-02-22T15:15:49.303Z,97607.32
2023-02-22T15:18:19.870Z,97607.73
2023-02-22T15:20:56.206Z,97607.48
2023-02-22T15:23:33.522Z,97607.49
2023-02-22T15:26:02.089Z,97605.91
2023-02-22T15:28:31.282Z,97605.48
2023-02-22T15:31:21.768Z,97604.73
2023-02-22T15:33:53.125Z,97609.90
2023-02-22T15:36:22.882Z,97612.66
2023-02-22T15:38:52.064Z,97612.98
2023-02-22T15:41:22.280Z,97614.67
2023-02-22T15:44:17.557Z,97615.65
2023-02-22T15:46:50.908Z,97617.69
2023-02-22T15:49:20.809Z,97620.94
2023-02-22T15:51:51.950Z,97623.52
2023-02-22T15:54:27.455Z,97625.72
2023-02-22T15:56:56.716Z,97624.20
2023-02-22T15:59:29.784Z,97626.63
2023-02-22T16:01:58.809Z,97626.25
2023-02-22T16:04:29.539Z,97626.18
2023-02-22T16:07:07.328Z,97627.27
2023-02-22T16:09:35.383Z,97633.71
2023-02-22T16:12:11.056Z,97637.45
2023-02-22T16:14:38.904Z,97640.02
2023-02-22T16:17:29.052Z,97644.45
2023-02-22T16:19:58.972Z,97647.54
2023-02-22T16:22:37.222Z,97649.54
2023-02-22T16:25:18.714Z,97649.94
2023-02-22T16:28:06.840Z,97652.29
2023-02-22T16:30:36.444Z,97657.73
2023-02-22T16:33:05.846Z,97659.46
2023-02-22T16:35:35.697Z,97665.89
2023-02-22T16:38:05.064Z,97667.73
2023-02-22T16:40:34.691Z,97667.66
2023-02-22T16:43:03.942Z,97673.02
2023-02-22T16:45:31.952Z,97674.54
2023-02-22T16:48:00.937Z,97677.31
2023-02-22T16:50:28.726Z,97680.11
2023-02-22T16:52:58.711Z,97682.31
2023-02-22T16:55:26.992Z,97687.20
2023-02-22T16:58:01.090Z,97686.64
2023-02-22T17:00:31.973Z,97685.83
2023-02-22T17:03:04.719Z,97690.06
2023-02-22T17:05:36.407Z,97691.56
2023-02-22T17:08:05.175Z,97690.18
2023-02-22T17:10:34.264Z,97692.14
2023-02-22T17:13:16.382Z,97691.80
2023-02-22T17:15:49.883Z,97688.80
2023-02-22T17:18:23.022Z,97689.27
2023-02-22T17:20:52.252Z,97687.90
2023-02-22T17:23:21.452Z,97692.13
2023-02-22T17:25:53.607Z,97694.37
2023-02-22T17:28:22.202Z,97696.64
2023-02-22T17:30:51.640Z,97695.16
2023-02-22T17:33:21.526Z,97691.55
2023-02-22T17:35:49.402Z,97692.57
2023-02-22T17:38:20.124Z,97692.18
2023-02-22T17:40:55.028Z,97692.42
2023-02-22T17:43:23.676Z,97692.89
2023-02-22T17:45:51.843Z,97692.67
2023-02-22T17:48:20.793Z,97694.63
2023-02-22T17:50:49.805Z,97696.30
2023-02-22T17:53:21.895Z,97697.13
2023-02-22T17:55:50.310Z,97695.70
2023-02-22T17:58:18.836Z,97696.38
2023-02-22T18:00:47.837Z,97695.60
2023-02-22T18:03:17.653Z,97692.09
2023-02-22T18:05:47.759Z,97692.78
2023-02-22T18:08:15.810Z,97692.77
2023-02-22T18:10:44.439Z,97694.27
2023-02-22T18:13:13.738Z,97691.49
2023-02-22T18:15:41.651Z,97692.13
2023-02-22T18:18:09.548Z,97694.09
2023-02-22T18:20:40.588Z,97694.70
2023-02-22T18:23:10.710Z,97694.80
2023-02-22T18:25:40.322Z,97693.60
2023-02-22T18:28:08.394Z,97692.15
2023-02-22T18:30:38.136Z,97692.48
2023-02-22T18:33:07.010Z,97695.39
2023-02-22T18:35:34.956Z,97693.33
2023-02-22T18:38:03.263Z,97695.05
2023-02-22T18:40:31.208Z,97691.50
2023-02-22T18:42:59.035Z,97688.02
2023-02-22T18:45:27.993Z,97688.19
2023-02-22T18:47:56.261Z,97687.23
2023-02-22T18:50:24.213Z,97690.73
2023-02-22T18:52:52.085Z,97691.17
2023-02-22T18:55:21.319Z,97687.95
2023-02-22T18:57:51.005Z,97690.58
2023-02-22T19:00:25.230Z,97692.45
2023-02-22T19:02:53.834Z,97698.08
2023-02-22T19:05:22.783Z,97701.05
2023-02-22T19:07:50.863Z,97698.42
2023-02-22T19:10:22.518Z,97700.42
2023-02-22T19:12:50.482Z,97703.91
2023-02-22T19:15:18.653Z,97705.06
2023-02-22T19:17:46.884Z,97709.35
2023-02-22T19:20:14.793Z,97702.15
2023-02-22T19:22:42.751Z,97703.08
2023-02-22T19:25:10.648Z,97704.89
2023-02-22T19:27:38.832Z,97710.77
2023-02-22T19:30:07.139Z,97711.73
2023-02-22T19:32:36.686Z,97713.67
2023-02-22T19:35:06.917Z,97720.84
2023-02-22T19:37:36.620Z,97718.16
2023-02-22T19:40:08.936Z,97718.20
2023-02-22T19:42:36.972Z,97716.52
2023-02-22T19:45:05.170Z,97720.63
2023-02-22T19:47:33.311Z,97723.27
2023-02-22T19:50:01.796Z,97723.55
2023-02-22T19:52:29.771Z,97726.60
2023-02-22T19:54:57.741Z,97729.05
2023-02-22T19:57:27.356Z,97732.54
2023-02-22T19:59:56.130Z,97736.44
2023-02-22T20:02:27.621Z,97739.94
2023-02-22T20:04:55.758Z,97745.73
2023-02-22T20:07:23.726Z,97745.95
2023-02-22T20:09:51.798Z,97744.89
2023-02-22T20:12:19.577Z,97751.85
2023-02-22T20:14:47.522Z,97757.84
2023-02-22T20:17:15.505Z,97755.90
2023-02-22T20:19:43.334Z,97758.16
2023-02-22T20:22:11.779Z,97760.95
2023-02-22T20:24:40.947Z,97760.61
2023-02-22T20:27:09.326Z,97763.30
2023-02-22T20:29:37.387Z,97759.94
2023-02-22T20:32:06.361Z,97757.48
2023-02-22T20:34:36.422Z,97756.26
2023-02-22T20:37:05.010Z,97761.52
2023-02-22T20:39:33.156Z,97763.77
2023-02-22T20:42:02.872Z,97762.59
2023-02-22T20:44:30.840Z,97762.17
2023-02-22T20:46:58.824Z,97763.86
2023-02-22T20:49:27.612Z,97761.30
2023-02-22T20:51:55.679Z,97759.34
2023-02-22T20:54:24.110Z,97764.45
2023-02-22T20:56:53.125Z,97764.44
2023-02-22T20:59:21.750Z,97766.48
2023-02-22T21:01:50.367Z,97766.25
2023-02-22T21:04:18.967Z,97764.50
2023-02-22T21:06:46.961Z,97760.96
2023-02-22T21:09:18.118Z,97764.76
2023-02-22T21:11:46.821Z,97764.81
2023-02-22T21:14:18.895Z,97762.62
2023-02-22T21:16:48.208Z,97759.83
2023-02-22T21:19:27.920Z,97764.27
2023-02-22T21:21:58.064Z,97765.41
2023-02-22T21:24:27.142Z,97765.08
2023-02-22T21:26:58.784Z,97759.65
2023-02-22T21:29:27.783Z,97759.16
2023-02-22T21:31:56.020Z,97757.10
2023-02-22T21:34:25.997Z,97759.52
2023-02-22T21:36:54.025Z,97755.77
2023-02-22T21:39:22.831Z,97755.63
2023-02-22T21:41:52.016Z,97754.61
2023-02-22T21:44:20.534Z,97755.69
2023-02-22T21:46:49.898Z,97759.73
2023-02-22T21:49:18.504Z,97757.79
2023-02-22T21:51:46.475Z,97757.39
2023-02-22T21:54:14.559Z,97752.70
2023-02-22T21:56:43.642Z,97746.23
2023-02-22T21:59:13.861Z,97747.52
2023-02-22T22:01:47.127Z,97746.38
2023-02-22T22:04:19.734Z,97747.70
2023-02-22T22:06:49.237Z,97753.56
2023-02-22T22:09:20.505Z,97755.69
2023-02-22T22:11:52.239Z,97754.37
2023-02-22T22:14:21.844Z,97757.20
2023-02-22T22:16:52.691Z,97757.65
2023-02-22T22:19:20.650Z,97758.83
2023-02-22T22:21:50.360Z,97758.86
2023-02-22T22:24:20.903Z,97757.83
2023-02-22T22:26:51.277Z,97759.17
2023-02-22T22:29:19.281Z,97758.16
2023-02-22T22:31:47.345Z,97755.55
2023-02-22T22:34:15.728Z,97754.13
2023-02-22T22:36:43.699Z,97756.52
2023-02-22T22:39:14.545Z,97759.70
2023-02-22T22:41:44.266Z,97759.61
2023-02-22T22:44:15.434Z,97759.23
2023-02-22T22:46:49.136Z,97759.37
2023-02-22T22:49:17.185Z,97761.20
2023-02-22T22:51:47.594Z,97764.38
2023-02-22T22:54:15.466Z,97766.67
2023-02-22T22:56:43.433Z,97767.94
2023-02-22T22:59:13.275Z,97772.13
2023-02-22T23:01:44.752Z,97773.89
2023-02-22T23:04:16.468Z,97768.56
2023-02-22T23:06:46.060Z,97766.48
2023-02-22T23:09:13.920Z,97762.45
2023-02-22T23:11:45.997Z,97763.23
2023-02-22T23:14:16.112Z,97769.48
2023-02-22T23:16:45.545Z,97769.09
2023-02-22T23:19:15.722Z,97767.83
2023-02-22T23:21:44.227Z,97767.18
2023-02-22T23:24:15.887Z,97770.78
2023-02-22T23:26:51.012Z,97770.66
2023-02-22T23:29:20.013Z,97770.95
2023-02-22T23:31:48.934Z,97773.77
2023-02-22T23:34:17.490Z,97774.06
2023-02-22T23:36:45.345Z,97773.34
2023-02-22T23:39:14.894Z,97772.17
2023-02-22T23:41:42.942Z,97775.70
2023-02-22T23:44:14.084Z,97775.73
2023-02-22T23:46:42.771Z,97771.30
2023-02-22T23:49:10.725Z,97769.38
2023-02-22T23:51:44.685Z,97772.28
2023-02-22T23:54:14.355Z,97774.02
2023-02-22T23:56:53.925Z,97773.02
2023-02-22T23:59:23.805Z,97770.33
